Terminal Aerodrome Forecast
Issued by NWS

Home | Current Version | Previous Version | Text Only | Print | Product List | Glossary On
Versions: 1 2 3 4 5 6 7 8 9 10 11 12 13 14 15 16 17 18 19 20 21 22
000
FTUS44 KBMX 261739
TAFTOI
TAF
KTOI 261739Z 2618/2718 01005KT P6SM SCT040
     FM262100 01005KT P6SM VCTS SCT040CB BKN100
     FM270000 VRB03KT P6SM SKC
     FM270700 00000KT 3SM BR SCT002=

USA.gov is the U.S. government's official web portal to all federal, state and local government web resources and services.